sensor_id;sensor_type;location;lat;lon;timestamp;temperature;humidity
65836;SHT30;52595;51.608;7.216;2023-07-28T00:01:54;16.91;99.99
65836;SHT30;52595;51.608;7.216;2023-07-28T00:04:19;16.89;99.99
65836;SHT30;52595;51.608;7.216;2023-07-28T00:06:45;16.91;99.99
65836;SHT30;52595;51.608;7.216;2023-07-28T00:09:10;16.89;99.99
65836;SHT30;52595;51.608;7.216;2023-07-28T00:11:35;16.89;99.99
65836;SHT30;52595;51.608;7.216;2023-07-28T00:14:01;16.91;99.99
65836;SHT30;52595;51.608;7.216;2023-07-28T00:16:26;16.91;99.99
65836;SHT30;52595;51.608;7.216;2023-07-28T00:18:52;16.88;99.99
65836;SHT30;52595;51.608;7.216;2023-07-28T00:21:17;16.88;99.99
65836;SHT30;52595;51.608;7.216;2023-07-28T00:23:42;16.89;99.99
65836;SHT30;52595;51.608;7.216;2023-07-28T00:26:08;16.85;99.99
65836;SHT30;52595;51.608;7.216;2023-07-28T00:28:33;16.88;99.99
65836;SHT30;52595;51.608;7.216;2023-07-28T00:30:58;16.85;99.99
65836;SHT30;52595;51.608;7.216;2023-07-28T00:33:24;16.89;99.99
65836;SHT30;52595;51.608;7.216;2023-07-28T00:35:49;16.89;99.99
65836;SHT30;52595;51.608;7.216;2023-07-28T00:38:15;16.85;99.99
65836;SHT30;52595;51.608;7.216;2023-07-28T00:40:40;16.89;99.99
65836;SHT30;52595;51.608;7.216;2023-07-28T00:43:05;16.88;99.99
65836;SHT30;52595;51.608;7.216;2023-07-28T00:45:35;16.88;99.99
65836;SHT30;52595;51.608;7.216;2023-07-28T00:48:00;16.87;99.99
65836;SHT30;52595;51.608;7.216;2023-07-28T00:50:26;16.88;99.99
65836;SHT30;52595;51.608;7.216;2023-07-28T00:52:52;16.85;99.99
65836;SHT30;52595;51.608;7.216;2023-07-28T00:55:18;16.87;99.99
65836;SHT30;52595;51.608;7.216;2023-07-28T00:57:44;16.88;99.99
65836;SHT30;52595;51.608;7.216;2023-07-28T01:00:10;16.85;99.99
65836;SHT30;52595;51.608;7.216;2023-07-28T01:02:36;16.88;99.99
65836;SHT30;52595;51.608;7.216;2023-07-28T01:05:03;16.91;99.99
65836;SHT30;52595;51.608;7.216;2023-07-28T01:10:30;16.88;99.99
65836;SHT30;52595;51.608;7.216;2023-07-28T01:12:57;16.88;99.99
65836;SHT30;52595;51.608;7.216;2023-07-28T01:15:22;16.88;99.99
65836;SHT30;52595;51.608;7.216;2023-07-28T01:17:48;16.88;99.99
65836;SHT30;52595;51.608;7.216;2023-07-28T01:20:13;16.89;99.99
65836;SHT30;52595;51.608;7.216;2023-07-28T01:22:46;16.89;99.99
65836;SHT30;52595;51.608;7.216;2023-07-28T01:25:39;16.88;99.99
65836;SHT30;52595;51.608;7.216;2023-07-28T01:28:09;16.88;99.99
65836;SHT30;52595;51.608;7.216;2023-07-28T01:30:36;16.88;99.99
65836;SHT30;52595;51.608;7.216;2023-07-28T01:33:06;16.94;99.99
65836;SHT30;52595;51.608;7.216;2023-07-28T01:35:31;16.89;99.99
65836;SHT30;52595;51.608;7.216;2023-07-28T01:37:56;16.92;99.99
65836;SHT30;52595;51.608;7.216;2023-07-28T01:40:22;16.89;99.99
65836;SHT30;52595;51.608;7.216;2023-07-28T01:42:47;16.91;99.99
65836;SHT30;52595;51.608;7.216;2023-07-28T01:45:13;16.94;99.99
65836;SHT30;52595;51.608;7.216;2023-07-28T01:47:38;16.92;99.99
65836;SHT30;52595;51.608;7.216;2023-07-28T01:50:04;16.95;99.99
65836;SHT30;52595;51.608;7.216;2023-07-28T01:52:29;16.94;99.99
65836;SHT30;52595;51.608;7.216;2023-07-28T01:54:55;16.94;99.99
65836;SHT30;52595;51.608;7.216;2023-07-28T01:57:20;16.94;99.99
65836;SHT30;52595;51.608;7.216;2023-07-28T01:59:45;16.92;99.99
65836;SHT30;52595;51.608;7.216;2023-07-28T02:02:11;16.92;99.99
65836;SHT30;52595;51.608;7.216;2023-07-28T02:04:36;16.94;99.99
65836;SHT30;52595;51.608;7.216;2023-07-28T02:07:01;16.95;99.99
65836;SHT30;52595;51.608;7.216;2023-07-28T02:09:27;16.94;99.99
65836;SHT30;52595;51.608;7.216;2023-07-28T02:11:52;16.92;99.99
65836;SHT30;52595;51.608;7.216;2023-07-28T02:14:18;16.94;99.99
65836;SHT30;52595;51.608;7.216;2023-07-28T02:16:43;16.94;99.99
65836;SHT30;52595;51.608;7.216;2023-07-28T02:19:09;16.94;99.99
65836;SHT30;52595;51.608;7.216;2023-07-28T02:21:34;16.94;99.99
65836;SHT30;52595;51.608;7.216;2023-07-28T02:24:00;16.92;99.99
65836;SHT30;52595;51.608;7.216;2023-07-28T02:26:25;16.91;99.99
65836;SHT30;52595;51.608;7.216;2023-07-28T02:28:51;16.94;99.99
65836;SHT30;52595;51.608;7.216;2023-07-28T02:31:16;16.91;99.99
65836;SHT30;52595;51.608;7.216;2023-07-28T02:33:44;16.89;99.99
65836;SHT30;52595;51.608;7.216;2023-07-28T02:36:09;16.94;99.99
65836;SHT30;52595;51.608;7.216;2023-07-28T02:38:35;16.94;99.99
65836;SHT30;52595;51.608;7.216;2023-07-28T02:41:00;16.91;99.99
65836;SHT30;52595;51.608;7.216;2023-07-28T02:43:25;16.92;99.99
65836;SHT30;52595;51.608;7.216;2023-07-28T02:45:55;16.89;99.99
65836;SHT30;52595;51.608;7.216;2023-07-28T02:48:21;16.92;99.99
65836;SHT30;52595;51.608;7.216;2023-07-28T02:50:51;16.97;99.99
65836;SHT30;52595;51.608;7.216;2023-07-28T02:53:17;16.92;99.99
65836;SHT30;52595;51.608;7.216;2023-07-28T02:55:43;16.92;99.99
65836;SHT30;52595;51.608;7.216;2023-07-28T02:58:09;16.92;99.99
65836;SHT30;52595;51.608;7.216;2023-07-28T03:00:39;16.94;99.99
65836;SHT30;52595;51.608;7.216;2023-07-28T03:03:05;16.95;99.99
65836;SHT30;52595;51.608;7.216;2023-07-28T03:05:31;16.92;99.99
65836;SHT30;52595;51.608;7.216;2023-07-28T03:07:56;16.94;99.99
65836;SHT30;52595;51.608;7.216;2023-07-28T03:10:22;16.94;99.99
65836;SHT30;52595;51.608;7.216;2023-07-28T03:12:47;16.98;99.99
65836;SHT30;52595;51.608;7.216;2023-07-28T03:15:13;16.95;99.99
65836;SHT30;52595;51.608;7.216;2023-07-28T03:17:38;16.94;99.99
65836;SHT30;52595;51.608;7.216;2023-07-28T03:20:04;16.97;99.99
65836;SHT30;52595;51.608;7.216;2023-07-28T03:22:29;16.95;99.99
65836;SHT30;52595;51.608;7.216;2023-07-28T03:24:56;16.97;99.99
65836;SHT30;52595;51.608;7.216;2023-07-28T03:27:21;16.95;99.99
65836;SHT30;52595;51.608;7.216;2023-07-28T03:29:46;16.95;99.99
65836;SHT30;52595;51.608;7.216;2023-07-28T03:32:12;16.95;99.99
65836;SHT30;52595;51.608;7.216;2023-07-28T03:34:37;16.98;99.99
65836;SHT30;52595;51.608;7.216;2023-07-28T03:37:03;17.01;99.99
65836;SHT30;52595;51.608;7.216;2023-07-28T03:39:28;17.00;99.99
65836;SHT30;52595;51.608;7.216;2023-07-28T03:41:55;17.00;99.99
65836;SHT30;52595;51.608;7.216;2023-07-28T03:44:20;17.04;99.99
65836;SHT30;52595;51.608;7.216;2023-07-28T03:46:46;17.01;99.99
65836;SHT30;52595;51.608;7.216;2023-07-28T03:49:12;17.01;99.99
65836;SHT30;52595;51.608;7.216;2023-07-28T03:51:37;17.04;99.99
65836;SHT30;52595;51.608;7.216;2023-07-28T03:54:02;17.01;99.99
65836;SHT30;52595;51.608;7.216;2023-07-28T03:56:28;17.01;99.99
65836;SHT30;52595;51.608;7.216;2023-07-28T03:58:53;17.04;99.99
65836;SHT30;52595;51.608;7.216;2023-07-28T04:01:19;17.05;99.99
65836;SHT30;52595;51.608;7.216;2023-07-28T04:03:47;17.04;99.99
65836;SHT30;52595;51.608;7.216;2023-07-28T04:06:13;17.04;99.99
65836;SHT30;52595;51.608;7.216;2023-07-28T04:08:39;17.04;99.99
65836;SHT30;52595;51.608;7.216;2023-07-28T04:11:05;17.04;99.99
65836;SHT30;52595;51.608;7.216;2023-07-28T04:13:30;17.04;99.99
65836;SHT30;52595;51.608;7.216;2023-07-28T04:15:55;17.07;99.99
65836;SHT30;52595;51.608;7.216;2023-07-28T04:18:21;17.05;99.99
65836;SHT30;52595;51.608;7.216;2023-07-28T04:20:46;17.08;99.99
65836;SHT30;52595;51.608;7.216;2023-07-28T04:23:12;17.08;99.99
65836;SHT30;52595;51.608;7.216;2023-07-28T04:25:37;17.04;99.99
65836;SHT30;52595;51.608;7.216;2023-07-28T04:28:03;17.07;99.99
65836;SHT30;52595;51.608;7.216;2023-07-28T04:30:28;17.10;99.99
65836;SHT30;52595;51.608;7.216;2023-07-28T04:32:54;17.10;99.99
65836;SHT30;52595;51.608;7.216;2023-07-28T04:35:19;17.10;99.99
65836;SHT30;52595;51.608;7.216;2023-07-28T04:37:44;17.12;99.99
65836;SHT30;52595;51.608;7.216;2023-07-28T04:40:10;17.12;99.99
65836;SHT30;52595;51.608;7.216;2023-07-28T04:42:36;17.17;99.99
65836;SHT30;52595;51.608;7.216;2023-07-28T04:45:02;17.15;99.99
65836;SHT30;52595;51.608;7.216;2023-07-28T04:47:27;17.19;99.99
65836;SHT30;52595;51.608;7.216;2023-07-28T04:49:53;17.19;99.99
65836;SHT30;52595;51.608;7.216;2023-07-28T04:52:18;17.22;99.99
65836;SHT30;52595;51.608;7.216;2023-07-28T04:54:44;17.21;99.99
65836;SHT30;52595;51.608;7.216;2023-07-28T04:57:09;17.31;99.99
65836;SHT30;52595;51.608;7.216;2023-07-28T04:59:34;17.28;99.99
65836;SHT30;52595;51.608;7.216;2023-07-28T05:02:00;17.28;99.99
65836;SHT30;52595;51.608;7.216;2023-07-28T05:04:25;17.27;99.99
65836;SHT30;52595;51.608;7.216;2023-07-28T05:06:50;17.28;99.99
65836;SHT30;52595;51.608;7.216;2023-07-28T05:09:16;17.36;99.99
65836;SHT30;52595;51.608;7.216;2023-07-28T05:11:41;17.40;99.99
65836;SHT30;52595;51.608;7.216;2023-07-28T05:14:07;17.43;99.99
65836;SHT30;52595;51.608;7.216;2023-07-28T05:16:34;17.45;99.99
65836;SHT30;52595;51.608;7.216;2023-07-28T05:18:59;17.46;99.99
65836;SHT30;52595;51.608;7.216;2023-07-28T05:21:25;17.43;99.99
65836;SHT30;52595;51.608;7.216;2023-07-28T05:23:50;17.43;99.99
65836;SHT30;52595;51.608;7.216;2023-07-28T05:26:16;17.40;99.99
65836;SHT30;52595;51.608;7.216;2023-07-28T05:28:41;17.43;99.99
65836;SHT30;52595;51.608;7.216;2023-07-28T05:31:07;17.48;99.99
65836;SHT30;52595;51.608;7.216;2023-07-28T05:33:32;17.45;99.99
65836;SHT30;52595;51.608;7.216;2023-07-28T05:36:04;17.45;99.99
65836;SHT30;52595;51.608;7.216;2023-07-28T05:38:30;17.53;99.99
65836;SHT30;52595;51.608;7.216;2023-07-28T05:40:57;17.58;99.99
65836;SHT30;52595;51.608;7.216;2023-07-28T05:43:22;17.55;99.99
65836;SHT30;52595;51.608;7.216;2023-07-28T05:45:47;17.58;99.99
65836;SHT30;52595;51.608;7.216;2023-07-28T05:48:13;17.61;99.99
65836;SHT30;52595;51.608;7.216;2023-07-28T05:50:38;17.62;99.99
65836;SHT30;52595;51.608;7.216;2023-07-28T05:53:04;17.80;99.99
65836;SHT30;52595;51.608;7.216;2023-07-28T05:55:29;17.85;99.99
65836;SHT30;52595;51.608;7.216;2023-07-28T05:57:55;17.86;99.99
65836;SHT30;52595;51.608;7.216;2023-07-28T06:00:20;17.89;99.99
65836;SHT30;52595;51.608;7.216;2023-07-28T06:02:47;17.94;99.99
65836;SHT30;52595;51.608;7.216;2023-07-28T06:05:12;17.97;99.99
65836;SHT30;52595;51.608;7.216;2023-07-28T06:07:40;18.09;99.99
65836;SHT30;52595;51.608;7.216;2023-07-28T06:10:06;18.06;99.99
65836;SHT30;52595;51.608;7.216;2023-07-28T06:12:34;18.03;99.99
65836;SHT30;52595;51.608;7.216;2023-07-28T06:14:59;17.97;99.99
65836;SHT30;52595;51.608;7.216;2023-07-28T06:17:25;18.02;99.99
65836;SHT30;52595;51.608;7.216;2023-07-28T06:19:52;18.09;99.99
65836;SHT30;52595;51.608;7.216;2023-07-28T06:22:18;18.02;99.99
65836;SHT30;52595;51.608;7.216;2023-07-28T06:24:43;18.06;99.99
65836;SHT30;52595;51.608;7.216;2023-07-28T06:27:08;18.09;99.99
65836;SHT30;52595;51.608;7.216;2023-07-28T06:29:35;18.18;99.99
65836;SHT30;52595;51.608;7.216;2023-07-28T06:32:00;18.29;99.99
65836;SHT30;52595;51.608;7.216;2023-07-28T06:34:26;18.31;99.99
65836;SHT30;52595;51.608;7.216;2023-07-28T06:36:52;18.40;99.99
65836;SHT30;52595;51.608;7.216;2023-07-28T06:39:17;18.48;99.99
65836;SHT30;52595;51.608;7.216;2023-07-28T06:41:43;18.54;99.99
65836;SHT30;52595;51.608;7.216;2023-07-28T06:44:08;18.50;99.99
65836;SHT30;52595;51.608;7.216;2023-07-28T06:46:36;18.51;99.99
65836;SHT30;52595;51.608;7.216;2023-07-28T06:49:02;18.47;99.99
65836;SHT30;52595;51.608;7.216;2023-07-28T06:51:28;18.45;99.99
65836;SHT30;52595;51.608;7.216;2023-07-28T06:53:54;18.43;99.99
65836;SHT30;52595;51.608;7.216;2023-07-28T06:56:19;18.45;99.99
65836;SHT30;52595;51.608;7.216;2023-07-28T06:58:44;18.48;99.99
65836;SHT30;52595;51.608;7.216;2023-07-28T07:01:10;18.57;99.99
65836;SHT30;52595;51.608;7.216;2023-07-28T07:03:36;18.57;99.99
65836;SHT30;52595;51.608;7.216;2023-07-28T07:06:02;18.67;99.99
65836;SHT30;52595;51.608;7.216;2023-07-28T07:08:27;18.79;99.99
65836;SHT30;52595;51.608;7.216;2023-07-28T07:10:53;18.96;99.65
65836;SHT30;52595;51.608;7.216;2023-07-28T07:13:18;18.89;99.60
65836;SHT30;52595;51.608;7.216;2023-07-28T07:15:44;18.67;99.58
65836;SHT30;52595;51.608;7.216;2023-07-28T07:18:11;18.61;99.99
65836;SHT30;52595;51.608;7.216;2023-07-28T07:20:37;18.58;99.99
65836;SHT30;52595;51.608;7.216;2023-07-28T07:23:04;18.54;99.99
65836;SHT30;52595;51.608;7.216;2023-07-28T07:25:29;18.60;99.99
65836;SHT30;52595;51.608;7.216;2023-07-28T07:27:55;18.58;99.99
65836;SHT30;52595;51.608;7.216;2023-07-28T07:30:21;18.55;99.99
65836;SHT30;52595;51.608;7.216;2023-07-28T07:32:46;18.53;99.99
65836;SHT30;52595;51.608;7.216;2023-07-28T07:35:11;18.53;99.98
65836;SHT30;52595;51.608;7.216;2023-07-28T07:37:38;18.54;99.99
65836;SHT30;52595;51.608;7.216;2023-07-28T07:40:05;18.51;99.99
65836;SHT30;52595;51.608;7.216;2023-07-28T07:42:47;18.51;99.99
65836;SHT30;52595;51.608;7.216;2023-07-28T07:45:14;18.48;99.99
65836;SHT30;52595;51.608;7.216;2023-07-28T07:47:40;18.57;99.99
65836;SHT30;52595;51.608;7.216;2023-07-28T07:50:09;18.60;99.93
65836;SHT30;52595;51.608;7.216;2023-07-28T07:52:36;18.71;99.86
65836;SHT30;52595;51.608;7.216;2023-07-28T07:55:02;18.85;99.49
65836;SHT30;52595;51.608;7.216;2023-07-28T07:57:28;19.05;99.02
65836;SHT30;52595;51.608;7.216;2023-07-28T07:59:53;19.28;98.49
65836;SHT30;52595;51.608;7.216;2023-07-28T08:02:19;19.55;97.61
65836;SHT30;52595;51.608;7.216;2023-07-28T08:04:44;20.09;96.34
65836;SHT30;52595;51.608;7.216;2023-07-28T08:07:09;20.38;95.64
65836;SHT30;52595;51.608;7.216;2023-07-28T08:09:35;20.45;94.92
65836;SHT30;52595;51.608;7.216;2023-07-28T08:12:00;20.44;94.35
65836;SHT30;52595;51.608;7.216;2023-07-28T08:14:26;20.40;94.77
65836;SHT30;52595;51.608;7.216;2023-07-28T08:16:51;20.34;94.78
65836;SHT30;52595;51.608;7.216;2023-07-28T08:19:16;20.23;94.13
65836;SHT30;52595;51.608;7.216;2023-07-28T08:21:43;20.33;94.31
65836;SHT30;52595;51.608;7.216;2023-07-28T08:24:08;20.64;94.27
65836;SHT30;52595;51.608;7.216;2023-07-28T08:26:34;20.58;93.84
65836;SHT30;52595;51.608;7.216;2023-07-28T08:28:59;20.33;94.50
65836;SHT30;52595;51.608;7.216;2023-07-28T08:31:24;20.31;94.84
65836;SHT30;52595;51.608;7.216;2023-07-28T08:33:50;20.38;94.37
65836;SHT30;52595;51.608;7.216;2023-07-28T08:36:16;20.28;94.11
65836;SHT30;52595;51.608;7.216;2023-07-28T08:38:41;20.33;94.83
65836;SHT30;52595;51.608;7.216;2023-07-28T08:41:06;20.33;95.03
65836;SHT30;52595;51.608;7.216;2023-07-28T08:43:32;20.16;95.58
65836;SHT30;52595;51.608;7.216;2023-07-28T08:45:57;20.13;95.07
65836;SHT30;52595;51.608;7.216;2023-07-28T08:48:26;20.11;94.77
65836;SHT30;52595;51.608;7.216;2023-07-28T08:50:52;19.93;94.88
65836;SHT30;52595;51.608;7.216;2023-07-28T08:53:18;19.84;95.19
65836;SHT30;52595;51.608;7.216;2023-07-28T08:55:44;19.81;95.45
65836;SHT30;52595;51.608;7.216;2023-07-28T08:58:17;19.84;95.90
65836;SHT30;52595;51.608;7.216;2023-07-28T09:00:44;20.10;95.16
65836;SHT30;52595;51.608;7.216;2023-07-28T09:03:10;20.17;94.67
65836;SHT30;52595;51.608;7.216;2023-07-28T09:05:36;20.30;93.39
65836;SHT30;52595;51.608;7.216;2023-07-28T09:08:02;20.41;93.60
65836;SHT30;52595;51.608;7.216;2023-07-28T09:10:40;20.82;92.39
65836;SHT30;52595;51.608;7.216;2023-07-28T09:13:09;20.88;92.05
65836;SHT30;52595;51.608;7.216;2023-07-28T09:15:35;21.25;91.46
65836;SHT30;52595;51.608;7.216;2023-07-28T09:18:01;21.19;91.03
65836;SHT30;52595;51.608;7.216;2023-07-28T09:20:34;21.38;90.83
65836;SHT30;52595;51.608;7.216;2023-07-28T09:23:00;21.09;91.05
65836;SHT30;52595;51.608;7.216;2023-07-28T09:25:28;20.99;92.03
65836;SHT30;52595;51.608;7.216;2023-07-28T09:27:54;20.84;92.16
65836;SHT30;52595;51.608;7.216;2023-07-28T09:30:20;20.95;92.07
65836;SHT30;52595;51.608;7.216;2023-07-28T09:32:48;20.91;91.83
65836;SHT30;52595;51.608;7.216;2023-07-28T09:35:14;21.23;91.60
65836;SHT30;52595;51.608;7.216;2023-07-28T09:37:41;21.20;91.20
65836;SHT30;52595;51.608;7.216;2023-07-28T09:40:09;21.71;90.17
65836;SHT30;52595;51.608;7.216;2023-07-28T09:42:42;22.25;89.88
65836;SHT30;52595;51.608;7.216;2023-07-28T09:45:08;22.73;86.49
65836;SHT30;52595;51.608;7.216;2023-07-28T09:47:35;22.81;86.96
65836;SHT30;52595;51.608;7.216;2023-07-28T09:50:05;22.99;87.25
65836;SHT30;52595;51.608;7.216;2023-07-28T09:52:49;22.22;87.82
65836;SHT30;52595;51.608;7.216;2023-07-28T09:55:15;22.01;88.49
65836;SHT30;52595;51.608;7.216;2023-07-28T09:57:51;21.63;89.09
65836;SHT30;52595;51.608;7.216;2023-07-28T10:00:18;21.93;88.58
65836;SHT30;52595;51.608;7.216;2023-07-28T10:02:46;22.15;87.84
65836;SHT30;52595;51.608;7.216;2023-07-28T10:05:11;21.86;88.87
65836;SHT30;52595;51.608;7.216;2023-07-28T10:07:41;21.84;88.98
65836;SHT30;52595;51.608;7.216;2023-07-28T10:10:09;22.18;87.91
65836;SHT30;52595;51.608;7.216;2023-07-28T10:15:16;22.35;87.47
65836;SHT30;52595;51.608;7.216;2023-07-28T10:20:33;22.66;86.64
65836;SHT30;52595;51.608;7.216;2023-07-28T10:25:39;22.03;89.06
65836;SHT30;52595;51.608;7.216;2023-07-28T10:28:06;21.83;89.76
65836;SHT30;52595;51.608;7.216;2023-07-28T10:30:37;21.46;90.17
65836;SHT30;52595;51.608;7.216;2023-07-28T10:33:03;21.79;90.11
65836;SHT30;52595;51.608;7.216;2023-07-28T10:35:29;21.87;89.60
65836;SHT30;52595;51.608;7.216;2023-07-28T10:37:56;22.21;88.57
65836;SHT30;52595;51.608;7.216;2023-07-28T10:42:49;22.68;87.35
65836;SHT30;52595;51.608;7.216;2023-07-28T10:45:15;23.08;85.81
65836;SHT30;52595;51.608;7.216;2023-07-28T10:47:44;23.26;85.81
65836;SHT30;52595;51.608;7.216;2023-07-28T10:50:10;23.18;85.36
65836;SHT30;52595;51.608;7.216;2023-07-28T10:52:42;22.47;86.71
65836;SHT30;52595;51.608;7.216;2023-07-28T10:55:20;22.25;86.90
65836;SHT30;52595;51.608;7.216;2023-07-28T10:57:46;22.10;87.77
65836;SHT30;52595;51.608;7.216;2023-07-28T11:00:14;22.22;88.01
65836;SHT30;52595;51.608;7.216;2023-07-28T11:02:53;22.45;87.41
65836;SHT30;52595;51.608;7.216;2023-07-28T11:05:26;22.37;87.19
65836;SHT30;52595;51.608;7.216;2023-07-28T11:07:54;22.30;86.73
65836;SHT30;52595;51.608;7.216;2023-07-28T11:10:20;22.51;86.63
65836;SHT30;52595;51.608;7.216;2023-07-28T11:12:48;22.92;84.60
65836;SHT30;52595;51.608;7.216;2023-07-28T11:15:15;22.96;83.79
65836;SHT30;52595;51.608;7.216;2023-07-28T11:17:46;22.69;84.57
65836;SHT30;52595;51.608;7.216;2023-07-28T11:20:18;22.85;84.23
65836;SHT30;52595;51.608;7.216;2023-07-28T11:22:52;23.02;83.94
65836;SHT30;52595;51.608;7.216;2023-07-28T11:25:18;22.43;83.89
65836;SHT30;52595;51.608;7.216;2023-07-28T11:27:45;22.65;84.63
65836;SHT30;52595;51.608;7.216;2023-07-28T11:30:14;22.88;83.97
65836;SHT30;52595;51.608;7.216;2023-07-28T11:32:43;22.95;82.41
65836;SHT30;52595;51.608;7.216;2023-07-28T11:35:11;22.34;83.39
65836;SHT30;52595;51.608;7.216;2023-07-28T11:37:43;22.48;84.70
65836;SHT30;52595;51.608;7.216;2023-07-28T11:40:09;22.72;84.17
65836;SHT30;52595;51.608;7.216;2023-07-28T11:42:45;23.20;82.87
65836;SHT30;52595;51.608;7.216;2023-07-28T11:45:12;22.92;82.80
65836;SHT30;52595;51.608;7.216;2023-07-28T11:47:38;23.19;81.77
65836;SHT30;52595;51.608;7.216;2023-07-28T11:50:06;23.42;80.45
65836;SHT30;52595;51.608;7.216;2023-07-28T11:52:33;23.56;80.79
65836;SHT30;52595;51.608;7.216;2023-07-28T11:55:00;23.42;81.13
65836;SHT30;52595;51.608;7.216;2023-07-28T11:57:27;23.49;81.75
65836;SHT30;52595;51.608;7.216;2023-07-28T11:59:56;23.71;80.62
65836;SHT30;52595;51.608;7.216;2023-07-28T12:02:29;24.01;78.54
65836;SHT30;52595;51.608;7.216;2023-07-28T12:04:55;24.36;79.02
65836;SHT30;52595;51.608;7.216;2023-07-28T12:07:31;24.75;77.23
65836;SHT30;52595;51.608;7.216;2023-07-28T12:09:58;26.12;72.68
65836;SHT30;52595;51.608;7.216;2023-07-28T12:12:29;25.51;74.57
65836;SHT30;52595;51.608;7.216;2023-07-28T12:14:55;24.71;76.44
65836;SHT30;52595;51.608;7.216;2023-07-28T12:17:22;24.04;76.99
65836;SHT30;52595;51.608;7.216;2023-07-28T12:20:07;24.01;77.55
65836;SHT30;52595;51.608;7.216;2023-07-28T12:22:36;24.24;76.65
65836;SHT30;52595;51.608;7.216;2023-07-28T12:25:02;24.14;76.91
65836;SHT30;52595;51.608;7.216;2023-07-28T12:27:27;24.26;77.66
65836;SHT30;52595;51.608;7.216;2023-07-28T12:29:53;25.27;76.15
65836;SHT30;52595;51.608;7.216;2023-07-28T12:32:19;26.73;73.30
65836;SHT30;52595;51.608;7.216;2023-07-28T12:34:45;26.90;71.24
65836;SHT30;52595;51.608;7.216;2023-07-28T12:37:11;27.04;70.60
65836;SHT30;52595;51.608;7.216;2023-07-28T12:39:37;25.77;74.01
65836;SHT30;52595;51.608;7.216;2023-07-28T12:42:07;25.00;75.91
65836;SHT30;52595;51.608;7.216;2023-07-28T12:44:33;25.07;75.86
65836;SHT30;52595;51.608;7.216;2023-07-28T12:46:58;25.05;76.03
65836;SHT30;52595;51.608;7.216;2023-07-28T12:49:24;24.99;75.72
65836;SHT30;52595;51.608;7.216;2023-07-28T12:51:49;24.78;76.13
65836;SHT30;52595;51.608;7.216;2023-07-28T12:54:14;24.72;77.97
65836;SHT30;52595;51.608;7.216;2023-07-28T12:56:40;24.78;77.37
65836;SHT30;52595;51.608;7.216;2023-07-28T12:59:05;24.56;78.32
65836;SHT30;52595;51.608;7.216;2023-07-28T13:01:31;24.78;78.45
65836;SHT30;52595;51.608;7.216;2023-07-28T13:03:59;25.03;77.14
65836;SHT30;52595;51.608;7.216;2023-07-28T13:06:25;25.84;74.84
65836;SHT30;52595;51.608;7.216;2023-07-28T13:08:50;25.98;74.33
65836;SHT30;52595;51.608;7.216;2023-07-28T13:11:18;26.22;74.13
65836;SHT30;52595;51.608;7.216;2023-07-28T13:13:44;26.87;72.74
65836;SHT30;52595;51.608;7.216;2023-07-28T13:16:10;27.61;69.46
65836;SHT30;52595;51.608;7.216;2023-07-28T13:18:35;27.20;68.98
65836;SHT30;52595;51.608;7.216;2023-07-28T13:21:01;27.36;68.53
65836;SHT30;52595;51.608;7.216;2023-07-28T13:23:26;28.45;66.48
65836;SHT30;52595;51.608;7.216;2023-07-28T13:25:52;28.60;66.45
65836;SHT30;52595;51.608;7.216;2023-07-28T13:28:18;28.00;66.98
65836;SHT30;52595;51.608;7.216;2023-07-28T13:30:46;27.65;68.90
65836;SHT30;52595;51.608;7.216;2023-07-28T13:33:12;26.93;70.70
65836;SHT30;52595;51.608;7.216;2023-07-28T13:35:37;27.31;70.15
65836;SHT30;52595;51.608;7.216;2023-07-28T13:38:02;26.83;70.57
65836;SHT30;52595;51.608;7.216;2023-07-28T13:40:28;26.08;71.33
65836;SHT30;52595;51.608;7.216;2023-07-28T13:42:53;25.57;73.21
65836;SHT30;52595;51.608;7.216;2023-07-28T13:45:19;25.60;73.11
65836;SHT30;52595;51.608;7.216;2023-07-28T13:47:44;25.33;73.51
65836;SHT30;52595;51.608;7.216;2023-07-28T13:50:10;24.92;74.44
65836;SHT30;52595;51.608;7.216;2023-07-28T13:52:35;25.06;74.54
65836;SHT30;52595;51.608;7.216;2023-07-28T13:55:01;24.82;75.73
65836;SHT30;52595;51.608;7.216;2023-07-28T13:57:26;25.03;75.29
65836;SHT30;52595;51.608;7.216;2023-07-28T13:59:51;25.05;75.32
65836;SHT30;52595;51.608;7.216;2023-07-28T14:02:17;25.88;73.05
65836;SHT30;52595;51.608;7.216;2023-07-28T14:04:43;27.44;70.33
65836;SHT30;52595;51.608;7.216;2023-07-28T14:07:09;28.22;67.11
65836;SHT30;52595;51.608;7.216;2023-07-28T14:09:34;28.00;67.93
65836;SHT30;52595;51.608;7.216;2023-07-28T14:12:01;28.00;68.54
65836;SHT30;52595;51.608;7.216;2023-07-28T14:14:26;27.90;68.54
65836;SHT30;52595;51.608;7.216;2023-07-28T14:16:52;28.28;66.96
65836;SHT30;52595;51.608;7.216;2023-07-28T14:19:17;28.56;66.35
65836;SHT30;52595;51.608;7.216;2023-07-28T14:21:43;28.25;67.94
65836;SHT30;52595;51.608;7.216;2023-07-28T14:24:08;27.60;67.92
65836;SHT30;52595;51.608;7.216;2023-07-28T14:26:36;27.95;65.75
65836;SHT30;52595;51.608;7.216;2023-07-28T14:29:02;27.88;67.29
65836;SHT30;52595;51.608;7.216;2023-07-28T14:31:27;27.17;69.61
65836;SHT30;52595;51.608;7.216;2023-07-28T14:33:53;26.97;69.29
65836;SHT30;52595;51.608;7.216;2023-07-28T14:36:21;25.95;72.16
65836;SHT30;52595;51.608;7.216;2023-07-28T14:38:47;25.56;72.38
65836;SHT30;52595;51.608;7.216;2023-07-28T14:41:15;25.63;72.77
65836;SHT30;52595;51.608;7.216;2023-07-28T14:43:40;25.34;74.49
65836;SHT30;52595;51.608;7.216;2023-07-28T14:46:05;25.34;74.13
65836;SHT30;52595;51.608;7.216;2023-07-28T14:48:31;24.93;75.15
65836;SHT30;52595;51.608;7.216;2023-07-28T14:50:56;24.68;76.38
65836;SHT30;52595;51.608;7.216;2023-07-28T14:53:32;24.73;76.82
65836;SHT30;52595;51.608;7.216;2023-07-28T14:55:59;24.44;77.89
65836;SHT30;52595;51.608;7.216;2023-07-28T14:58:25;24.00;78.81
65836;SHT30;52595;51.608;7.216;2023-07-28T15:00:51;24.04;79.22
65836;SHT30;52595;51.608;7.216;2023-07-28T15:03:16;24.08;79.33
65836;SHT30;52595;51.608;7.216;2023-07-28T15:05:42;24.76;77.80
65836;SHT30;52595;51.608;7.216;2023-07-28T15:08:08;25.29;76.00
65836;SHT30;52595;51.608;7.216;2023-07-28T15:10:33;25.44;75.30
65836;SHT30;52595;51.608;7.216;2023-07-28T15:12:58;24.89;76.97
65836;SHT30;52595;51.608;7.216;2023-07-28T15:15:24;24.83;77.31
65836;SHT30;52595;51.608;7.216;2023-07-28T15:17:49;24.88;77.61
65836;SHT30;52595;51.608;7.216;2023-07-28T15:20:15;25.02;76.88
65836;SHT30;52595;51.608;7.216;2023-07-28T15:22:44;25.05;76.83
65836;SHT30;52595;51.608;7.216;2023-07-28T15:25:13;25.54;75.31
65836;SHT30;52595;51.608;7.216;2023-07-28T15:27:41;26.45;72.21
65836;SHT30;52595;51.608;7.216;2023-07-28T15:30:08;26.73;71.76
65836;SHT30;52595;51.608;7.216;2023-07-28T15:32:34;26.46;73.14
65836;SHT30;52595;51.608;7.216;2023-07-28T15:35:00;25.66;73.60
65836;SHT30;52595;51.608;7.216;2023-07-28T15:37:26;24.71;76.12
65836;SHT30;52595;51.608;7.216;2023-07-28T15:39:51;24.72;77.28